Time;durP1;ratioP1;P1;durP2;ratioP2;P2;SDS_P1;SDS_P2;PMS_P1;PMS_P2;Temp;Humidity;BMP_temperature;BMP_pressure;BME280_temperature;BME280_humidity;BME280_pressure;Samples;Min_cycle;Max_cycle;Signal;HPM_P1;HPM_P2
2022/12/17 13:06:53;;;;;;;2.83;0.98;;;-0.90;99.90;;;;;;5047446;28;20429;-70
2022/12/17 13:09:21;;;;;;;3.55;1.60;;;-0.90;99.90;;;;;;5063349;28;20738;-68
2022/12/17 13:11:52;;;;;;;3.33;0.98;;;-0.90;99.90;;;;;;5041026;28;20021;-66
2022/12/17 13:14:23;;;;;;;1.67;0.90;;;-1.00;99.90;;;;;;5044711;28;20059;-68
2022/12/17 13:17:00;;;;;;;2.03;0.90;;;-1.00;99.90;;;;;;5045091;28;20041;-67
2022/12/17 13:19:43;;;;;;;2.50;0.95;;;-1.10;99.90;;;;;;5054232;28;20041;-66
2022/12/17 13:22:11;;;;;;;1.88;0.60;;;-1.30;99.90;;;;;;5045591;28;20033;-67
2022/12/17 13:24:37;;;;;;;2.92;0.70;;;-1.30;99.90;;;;;;5047125;28;20037;-68
2022/12/17 13:27:03;;;;;;;0.73;0.50;;;-1.30;99.90;;;;;;5045363;28;20048;-67
2022/12/17 13:29:36;;;;;;;3.17;0.80;;;-1.30;99.90;;;;;;5047574;28;20040;-68
2022/12/17 13:32:11;;;;;;;2.70;0.90;;;-1.50;99.90;;;;;;5043802;28;20410;-68
2022/12/17 13:34:42;;;;;;;1.70;0.80;;;-1.50;99.90;;;;;;5043650;28;20110;-68
2022/12/17 13:37:34;;;;;;;4.03;1.30;;;-1.60;99.90;;;;;;5042209;28;20040;-68
2022/12/17 13:40:20;;;;;;;5.82;1.15;;;-1.60;99.90;;;;;;5041830;28;20169;-68
2022/12/17 13:42:47;;;;;;;3.75;0.85;;;-1.70;99.90;;;;;;5041209;28;20516;-67
2022/12/17 13:45:16;;;;;;;2.65;1.30;;;-1.80;99.90;;;;;;5040279;28;20036;-67
2022/12/17 13:47:41;;;;;;;1.92;1.20;;;-1.90;99.90;;;;;;5043083;28;20040;-68
2022/12/17 13:50:22;;;;;;;11.43;3.33;;;-1.90;99.90;;;;;;5042165;28;20036;-67
2022/12/17 13:52:49;;;;;;;9.70;2.17;;;-1.90;99.90;;;;;;5051233;28;20060;-67
2022/12/17 13:55:21;;;;;;;3.20;1.55;;;-1.90;99.90;;;;;;5041271;28;20083;-67
2022/12/17 13:57:48;;;;;;;3.05;1.30;;;-2.00;99.90;;;;;;5041026;28;20045;-68
2022/12/17 14:00:21;;;;;;;3.88;1.58;;;-2.00;99.90;;;;;;5044194;28;20497;-68
2022/12/17 14:02:47;;;;;;;4.78;1.75;;;-2.10;99.90;;;;;;5022335;28;20119;-68
2022/12/17 14:05:37;;;;;;;5.60;1.15;;;-2.10;99.90;;;;;;5021071;28;20041;-68
2022/12/17 14:08:04;;;;;;;3.53;1.42;;;-2.20;99.90;;;;;;5034173;28;20053;-68
2022/12/17 14:10:31;;;;;;;4.72;1.20;;;-2.20;99.90;;;;;;5023200;28;20048;-68
2022/12/17 14:13:09;;;;;;;6.90;1.05;;;-2.30;99.90;;;;;;5025164;28;20044;-65
2022/12/17 14:15:35;;;;;;;1.00;0.80;;;-2.30;99.90;;;;;;5021945;28;20048;-65
2022/12/17 14:18:02;;;;;;;1.75;0.80;;;-2.40;99.90;;;;;;5021972;28;20037;-65
2022/12/17 14:20:31;;;;;;;3.65;1.20;;;-2.40;99.90;;;;;;5016585;28;20041;-66
2022/12/17 14:23:28;;;;;;;5.18;1.13;;;-2.40;99.90;;;;;;5022695;28;20103;-66
2022/12/17 14:25:55;;;;;;;;;;;-2.40;99.90;;;;;;5013835;28;20049;-67
2022/12/17 14:28:32;;;;;;;5.20;1.35;;;-2.50;99.90;;;;;;5021797;28;19927;-66
2022/12/17 14:31:17;;;;;;;2.47;1.02;;;-2.50;99.90;;;;;;5018256;28;20056;-67
2022/12/17 14:33:43;;;;;;;3.65;1.27;;;-2.60;99.90;;;;;;5024534;28;20124;-67
2022/12/17 14:36:23;;;;;;;2.72;0.90;;;-2.60;99.90;;;;;;5021040;28;20045;-66
2022/12/17 14:38:58;;;;;;;5.20;1.60;;;-2.70;99.90;;;;;;5022841;28;20108;-66
2022/12/17 14:44:19;;;;;;;4.63;1.17;;;-2.70;99.90;;;;;;5018470;28;20038;-67
2022/12/17 14:46:45;;;;;;;3.45;1.13;;;-2.80;99.90;;;;;;5015931;28;20053;-67
2022/12/17 14:49:17;;;;;;;2.03;0.82;;;-2.90;99.90;;;;;;5020129;28;20037;-69
2022/12/17 14:51:43;;;;;;;2.45;1.08;;;-2.90;99.90;;;;;;5017311;28;20048;-67
2022/12/17 14:54:18;;;;;;;3.50;1.15;;;-2.90;99.90;;;;;;5021598;28;20124;-68
2022/12/17 14:56:46;;;;;;;3.90;1.00;;;-2.90;99.90;;;;;;5009392;28;20087;-68
2022/12/17 14:59:32;;;;;;;5.03;1.73;;;-3.00;99.90;;;;;;5018620;28;20072;-67
2022/12/17 15:02:02;;;;;;;3.97;1.55;;;-3.10;99.90;;;;;;5016471;28;20052;-67
2022/12/17 15:04:29;;;;;;;3.03;1.17;;;-3.10;99.90;;;;;;5024499;28;20109;-67
2022/12/17 15:06:55;;;;;;;4.20;2.03;;;-3.20;99.90;;;;;;5018890;28;20045;-67
2022/12/17 15:09:21;;;;;;;3.10;1.33;;;-3.20;99.90;;;;;;5024610;28;20049;-64
2022/12/17 15:11:46;;;;;;;1.75;0.90;;;-3.30;99.90;;;;;;5019650;28;20049;-64
2022/12/17 15:14:12;;;;;;;4.97;1.48;;;-3.30;99.90;;;;;;5022002;28;20120;-67
2022/12/17 15:16:38;;;;;;;7.25;2.47;;;-3.30;99.90;;;;;;5020607;28;20045;-67
2022/12/17 15:19:03;;;;;;;4.28;1.40;;;-3.40;99.90;;;;;;5022972;28;20045;-68
2022/12/17 15:21:29;;;;;;;5.00;2.13;;;-3.40;99.90;;;;;;5020830;28;20038;-67
2022/12/17 15:23:54;;;;;;;10.57;3.40;;;-3.50;99.90;;;;;;5022466;28;20048;-66
2022/12/17 15:26:20;;;;;;;18.10;6.63;;;-3.40;99.90;;;;;;5018579;28;20037;-68
2022/12/17 15:28:46;;;;;;;8.52;2.92;;;-3.40;99.90;;;;;;5024643;28;20033;-68
2022/12/17 15:31:13;;;;;;;5.90;2.33;;;-3.40;99.90;;;;;;5019447;28;20038;-66
2022/12/17 15:33:39;;;;;;;5.70;1.58;;;-3.60;99.90;;;;;;5021593;28;20041;-68
2022/12/17 15:36:05;;;;;;;4.00;1.63;;;-3.60;99.90;;;;;;5019623;28;20246;-69
2022/12/17 15:38:31;;;;;;;9.88;3.85;;;-3.70;99.90;;;;;;5024399;28;20637;-68
2022/12/17 15:43:09;;;;;;;5.95;2.88;;;-3.70;99.90;;;;;;5019450;28;20092;-68
2022/12/17 15:43:47;;;;;;;6.90;1.67;;;-3.80;99.90;;;;;;5019090;28;20055;-67
2022/12/17 15:46:12;;;;;;;8.52;2.13;;;-3.80;99.90;;;;;;5013654;28;20041;-67
2022/12/17 15:48:38;;;;;;;8.07;2.30;;;-3.90;99.90;;;;;;5015546;28;20065;-66
2022/12/17 15:51:04;;;;;;;3.30;1.52;;;-3.90;99.90;;;;;;5021743;28;20087;-67
2022/12/17 15:53:29;;;;;;;6.25;1.88;;;-4.00;99.90;;;;;;5026024;28;20041;-65
2022/12/17 15:55:59;;;;;;;4.93;2.28;;;-4.00;99.90;;;;;;5022645;28;20137;-67
2022/12/17 15:58:25;;;;;;;10.80;2.72;;;-4.10;99.90;;;;;;5022573;28;20358;-69
2022/12/17 16:00:51;;;;;;;4.70;1.52;;;-4.10;99.90;;;;;;5024175;28;20042;-69
2022/12/17 16:03:17;;;;;;;8.70;1.90;;;-4.20;99.90;;;;;;5026427;28;20493;-68
2022/12/17 16:05:43;;;;;;;7.18;2.08;;;-4.20;99.90;;;;;;5022197;28;20124;-68
2022/12/17 16:08:08;;;;;;;4.75;1.83;;;-4.40;99.90;;;;;;5022373;28;20684;-67
2022/12/17 16:10:34;;;;;;;4.75;1.55;;;-4.40;99.90;;;;;;5017714;28;20042;-68
2022/12/17 16:13:00;;;;;;;7.32;2.42;;;-4.40;99.90;;;;;;5014902;28;20452;-66
2022/12/17 16:15:25;;;;;;;4.40;2.20;;;-4.50;99.90;;;;;;5018653;28;20125;-67
2022/12/17 16:17:51;;;;;;;5.90;2.47;;;-4.60;99.90;;;;;;5022248;28;20488;-66
2022/12/17 16:20:17;;;;;;;6.93;3.42;;;-4.60;99.90;;;;;;5025164;28;20030;-67
2022/12/17 16:22:43;;;;;;;8.40;3.60;;;-4.70;99.90;;;;;;5022028;28;20500;-70
2022/12/17 16:25:09;;;;;;;7.60;3.65;;;-4.60;99.90;;;;;;5022121;28;20486;-69
2022/12/17 16:27:35;;;;;;;7.97;3.42;;;-4.60;99.90;;;;;;5024380;28;20107;-69
2022/12/17 16:30:02;;;;;;;4.97;2.70;;;-4.70;99.90;;;;;;5025368;28;20038;-68
2022/12/17 16:32:28;;;;;;;8.25;3.30;;;-4.70;99.90;;;;;;5024770;28;20443;-67
2022/12/17 16:34:53;;;;;;;9.85;2.95;;;-4.70;99.90;;;;;;5024178;28;20543;-67
2022/12/17 16:37:19;;;;;;;6.85;2.85;;;-4.70;99.90;;;;;;5025313;28;20033;-66
2022/12/17 16:39:44;;;;;;;6.13;3.50;;;-4.70;99.90;;;;;;5025021;28;20053;-66
2022/12/17 16:42:10;;;;;;;7.68;2.95;;;-4.80;99.90;;;;;;5020455;28;20468;-66
2022/12/17 16:44:36;;;;;;;4.10;2.08;;;-4.90;99.90;;;;;;5022364;28;20456;-67
2022/12/17 16:47:02;;;;;;;7.38;2.70;;;-4.90;99.90;;;;;;5021724;28;20121;-66
2022/12/17 16:49:28;;;;;;;7.72;3.28;;;-4.80;99.90;;;;;;5024413;28;20734;-66
2022/12/17 16:51:55;;;;;;;8.77;3.97;;;-5.00;99.90;;;;;;5023300;28;20033;-66
2022/12/17 16:54:24;;;;;;;10.82;3.92;;;-5.00;99.90;;;;;;5021846;28;20480;-67
2022/12/17 16:56:51;;;;;;;6.88;3.10;;;-5.10;99.90;;;;;;5020615;28;20045;-66
2022/12/17 16:59:17;;;;;;;7.18;3.35;;;-5.10;99.90;;;;;;5020735;28;20037;-66
2022/12/17 17:01:45;;;;;;;6.93;3.10;;;-5.00;99.90;;;;;;5020956;28;20045;-68
2022/12/17 17:04:12;;;;;;;7.60;3.13;;;-5.10;99.90;;;;;;5021346;28;20045;-68
2022/12/17 17:06:53;;;;;;;5.72;2.72;;;-5.20;99.90;;;;;;5018318;28;20053;-65
2022/12/17 17:09:19;;;;;;;6.32;2.08;;;-5.10;99.90;;;;;;5025113;28;20472;-67
2022/12/17 17:11:47;;;;;;;7.15;2.92;;;-4.90;99.90;;;;;;5019507;28;20103;-67
2022/12/17 17:14:12;;;;;;;4.43;2.40;;;-4.80;99.90;;;;;;5018230;28;20063;-65
2022/12/17 17:16:38;;;;;;;4.10;2.15;;;-4.70;99.90;;;;;;5023384;28;20497;-67
2022/12/17 17:19:04;;;;;;;6.68;2.20;;;-4.70;99.90;;;;;;5025190;28;20048;-66
2022/12/17 17:21:38;;;;;;;8.27;2.03;;;-4.60;99.90;;;;;;5020897;28;20110;-67
2022/12/17 17:24:14;;;;;;;3.88;1.80;;;-4.60;99.90;;;;;;5019996;28;20033;-67
2022/12/17 17:26:41;;;;;;;4.55;1.90;;;-4.70;99.90;;;;;;5018301;28;20069;-66
2022/12/17 17:29:07;;;;;;;3.65;1.73;;;-4.60;99.90;;;;;;5018646;28;20095;-66
2022/12/17 17:31:35;;;;;;;4.78;2.15;;;-4.60;99.90;;;;;;5019854;28;20115;-66
2022/12/17 17:34:06;;;;;;;5.10;2.33;;;-4.60;99.90;;;;;;5021641;28;20139;-66
2022/12/17 17:36:32;;;;;;;6.22;2.58;;;-4.80;99.90;;;;;;5018782;28;20049;-66
2022/12/17 17:39:00;;;;;;;5.72;2.35;;;-4.80;99.90;;;;;;5023540;28;20131;-66
2022/12/17 17:41:28;;;;;;;5.43;2.20;;;-4.90;99.90;;;;;;5020874;28;20132;-67
2022/12/17 17:44:00;;;;;;;5.18;1.50;;;-4.80;99.90;;;;;;5021566;28;20142;-66
2022/12/17 17:46:27;;;;;;;4.78;1.75;;;-4.80;99.90;;;;;;5014126;28;20140;-66
2022/12/17 17:48:55;;;;;;;4.68;1.73;;;-4.80;99.90;;;;;;5019980;28;20097;-66
2022/12/17 17:51:23;;;;;;;7.53;3.00;;;-4.80;99.90;;;;;;5018537;28;20040;-66
2022/12/17 17:53:51;;;;;;;16.95;5.40;;;-4.90;99.90;;;;;;5015869;28;20044;-68
2022/12/17 17:56:22;;;;;;;12.05;5.85;;;-4.80;99.90;;;;;;5017593;28;20138;-68
2022/12/17 17:58:51;;;;;;;14.38;6.55;;;-4.80;99.90;;;;;;5024020;28;20397;-67
2022/12/17 18:01:19;;;;;;;16.05;6.78;;;-4.80;99.90;;;;;;5023268;28;20113;-69
2022/12/17 18:03:45;;;;;;;12.50;4.93;;;-4.80;99.90;;;;;;5024031;28;20057;-68
2022/12/17 18:06:12;;;;;;;29.30;9.93;;;-4.70;99.90;;;;;;5021884;28;20041;-67
2022/12/17 18:08:39;;;;;;;16.60;5.38;;;-4.70;99.90;;;;;;5019337;28;20041;-70
2022/12/17 18:11:07;;;;;;;7.47;2.40;;;-4.70;99.90;;;;;;5020649;28;20112;-69
2022/12/17 18:16:19;;;;;;;18.85;7.65;;;-4.60;99.90;;;;;;5023065;28;20777;-67
2022/12/17 18:18:45;;;;;;;11.80;4.18;;;-4.60;99.90;;;;;;5024316;28;20132;-67
2022/12/17 18:21:14;;;;;;;9.10;3.55;;;-4.70;99.90;;;;;;5021180;28;20116;-67
2022/12/17 18:23:40;;;;;;;5.45;1.70;;;-4.70;99.90;;;;;;5019480;28;20274;-69
2022/12/17 18:26:16;;;;;;;9.25;1.65;;;-4.60;99.90;;;;;;5016432;28;20049;-68
2022/12/17 18:28:43;;;;;;;;;;;-4.60;99.90;;;;;;5021150;28;20052;-67
2022/12/17 18:31:11;;;;;;;4.07;2.03;;;-4.60;99.90;;;;;;5019516;28;20012;-68
2022/12/17 18:33:40;;;;;;;3.33;1.27;;;-4.60;99.90;;;;;;5020730;28;20037;-69
2022/12/17 18:36:20;;;;;;;3.63;1.23;;;-4.70;99.90;;;;;;5024738;28;20583;-67
2022/12/17 18:38:47;;;;;;;3.05;1.10;;;-4.60;99.90;;;;;;5022988;28;20037;-68
2022/12/17 18:44:05;;;;;;;2.55;1.38;;;-4.50;99.90;;;;;;5022014;28;20538;-70
2022/12/17 18:46:32;;;;;;;8.77;1.55;;;-4.60;99.90;;;;;;5019980;28;20046;-68
2022/12/17 18:49:07;;;;;;;5.00;1.20;;;-4.40;99.90;;;;;;5024933;28;20114;-67
2022/12/17 18:51:34;;;;;;;6.63;1.42;;;-4.30;99.90;;;;;;5021490;28;20103;-67
2022/12/17 18:54:02;;;;;;;2.25;1.30;;;-4.30;99.90;;;;;;5023674;28;20048;-67
2022/12/17 18:56:28;;;;;;;4.30;1.45;;;-4.30;99.90;;;;;;5017445;28;20038;-66
2022/12/17 18:58:55;;;;;;;4.95;1.33;;;-4.30;99.90;;;;;;5022533;28;20041;-67
2022/12/17 19:01:39;;;;;;;5.40;1.50;;;-4.30;99.90;;;;;;5019233;28;20026;-66
2022/12/17 19:04:10;;;;;;;5.35;1.27;;;-4.30;99.90;;;;;;5019048;28;20048;-66
2022/12/17 19:06:37;;;;;;;3.45;1.00;;;-4.30;99.90;;;;;;5016357;28;20172;-66
2022/12/17 19:09:05;;;;;;;3.90;1.10;;;-4.20;99.90;;;;;;5021735;28;20086;-66
2022/12/17 19:11:32;;;;;;;5.10;0.93;;;-4.30;99.90;;;;;;5019753;28;20045;-67
2022/12/17 19:13:57;;;;;;;4.40;1.20;;;-4.30;99.90;;;;;;5023105;28;20096;-66
2022/12/17 19:16:25;;;;;;;4.35;0.90;;;-4.40;99.90;;;;;;5019677;28;20041;-66
2022/12/17 19:18:56;;;;;;;3.65;0.90;;;-4.40;99.90;;;;;;5023209;28;20042;-67
2022/12/17 19:21:22;;;;;;;2.83;1.00;;;-4.40;99.90;;;;;;5019142;28;20037;-67
2022/12/17 19:23:49;;;;;;;4.45;1.13;;;-4.40;99.90;;;;;;5025036;28;20120;-66
2022/12/17 19:26:20;;;;;;;2.25;0.80;;;-4.50;99.90;;;;;;5025232;28;20037;-66
2022/12/17 19:28:48;;;;;;;1.52;0.70;;;-4.50;99.90;;;;;;5026728;28;20036;-67
2022/12/17 19:31:15;;;;;;;2.45;0.80;;;-4.50;99.90;;;;;;5021122;28;20146;-66
2022/12/17 19:33:41;;;;;;;3.08;0.93;;;-4.50;99.90;;;;;;5020783;28;20453;-66
2022/12/17 19:36:13;;;;;;;1.83;0.90;;;-4.50;99.90;;;;;;5020790;28;20033;-67
2022/12/17 19:38:39;;;;;;;5.60;1.27;;;-4.60;99.90;;;;;;5029451;28;20041;-68
2022/12/17 19:41:16;;;;;;;4.72;1.10;;;-4.60;99.90;;;;;;5022974;28;20529;-67
2022/12/17 19:43:46;;;;;;;5.18;0.80;;;-4.60;99.90;;;;;;5022816;28;20128;-66
2022/12/17 19:46:17;;;;;;;1.83;0.75;;;-4.60;99.90;;;;;;5019054;28;20044;-67
2022/12/17 19:48:44;;;;;;;1.17;0.82;;;-4.70;99.90;;;;;;5023886;28;20056;-66
2022/12/17 19:51:11;;;;;;;2.30;0.57;;;-4.70;99.90;;;;;;5022568;28;20045;-66
2022/12/17 19:53:39;;;;;;;1.90;0.75;;;-4.60;99.90;;;;;;5026240;28;20049;-67
2022/12/17 19:56:26;;;;;;;4.53;0.95;;;-4.60;99.90;;;;;;5015327;28;20333;-67
2022/12/17 19:58:55;;;;;;;1.08;0.70;;;-4.70;99.90;;;;;;5024694;28;20128;-64
2022/12/17 20:01:24;;;;;;;2.78;0.77;;;-4.70;99.90;;;;;;5023281;28;20037;-66
2022/12/17 20:03:50;;;;;;;2.22;0.70;;;-4.80;99.90;;;;;;5025646;28;20136;-67
2022/12/17 20:06:18;;;;;;;2.17;0.80;;;-4.70;99.90;;;;;;5023845;28;20578;-68
2022/12/17 20:08:44;;;;;;;2.72;0.68;;;-4.70;99.90;;;;;;5028169;28;20045;-66
2022/12/17 20:14:12;;;;;;;1.48;0.77;;;-4.60;99.90;;;;;;5025009;28;20073;-67
2022/12/17 20:16:43;;;;;;;3.40;0.85;;;-4.60;99.90;;;;;;5020775;28;20213;-66
2022/12/17 20:19:22;;;;;;;2.85;0.75;;;-4.60;99.90;;;;;;5023396;28;20897;-67
2022/12/17 20:21:48;;;;;;;1.50;0.57;;;-4.60;99.90;;;;;;5023033;28;20037;-68
2022/12/17 20:24:15;;;;;;;1.08;0.50;;;-4.70;99.90;;;;;;5023583;28;20646;-68
2022/12/17 20:26:41;;;;;;;1.50;0.60;;;-4.70;99.90;;;;;;5020788;28;20045;-67
2022/12/17 20:29:08;;;;;;;0.93;0.55;;;-4.70;99.90;;;;;;5021329;28;20041;-67
2022/12/17 20:31:34;;;;;;;4.03;0.95;;;-4.70;99.90;;;;;;5015804;28;20777;-68
2022/12/17 20:34:02;;;;;;;0.90;0.60;;;-4.70;99.90;;;;;;5018532;28;20077;-69
2022/12/17 20:36:28;;;;;;;1.95;0.98;;;-4.80;99.90;;;;;;5019515;28;20108;-68
2022/12/17 20:38:54;;;;;;;2.65;0.80;;;-4.80;99.90;;;;;;5022713;28;20037;-68
2022/12/17 20:41:22;;;;;;;5.78;0.88;;;-4.70;99.90;;;;;;5020400;28;20041;-68
2022/12/17 20:43:49;;;;;;;1.85;0.63;;;-4.70;99.90;;;;;;5021914;28;20064;-68
2022/12/17 20:46:15;;;;;;;1.10;0.50;;;-4.70;99.90;;;;;;5021890;28;20041;-68
2022/12/17 20:48:42;;;;;;;1.42;0.60;;;-4.70;99.90;;;;;;5030885;28;20045;-68
2022/12/17 20:51:10;;;;;;;4.75;0.80;;;-4.80;99.90;;;;;;5021498;28;20038;-68
2022/12/17 20:53:36;;;;;;;4.38;0.70;;;-4.80;99.90;;;;;;5025921;28;20128;-67
2022/12/17 20:56:18;;;;;;;1.25;0.50;;;-4.80;99.90;;;;;;5018845;28;20042;-67
2022/12/17 20:58:43;;;;;;;1.80;0.70;;;-4.70;99.90;;;;;;5025905;28;20045;-67
2022/12/17 21:01:17;;;;;;;0.80;0.50;;;-4.70;99.90;;;;;;5021473;28;20516;-67
2022/12/17 21:03:42;;;;;;;5.88;0.80;;;-4.70;99.90;;;;;;5020049;28;20042;-69
2022/12/17 21:06:14;;;;;;;5.00;0.82;;;-4.70;99.90;;;;;;5026249;28;20033;-67
2022/12/17 21:08:41;;;;;;;0.77;0.65;;;-4.80;99.90;;;;;;5023877;28;20041;-65
2022/12/17 21:11:07;;;;;;;1.90;0.73;;;-4.80;99.90;;;;;;5020691;28;20508;-66
2022/12/17 21:13:34;;;;;;;1.40;0.68;;;-4.90;99.90;;;;;;5019813;28;20041;-68
2022/12/17 21:16:03;;;;;;;1.55;0.80;;;-4.90;99.90;;;;;;5021923;28;20039;-68
2022/12/17 21:18:30;;;;;;;3.08;0.68;;;-4.90;99.90;;;;;;5021280;28;20382;-67
2022/12/17 21:21:00;;;;;;;0.90;0.50;;;-4.90;99.90;;;;;;5023227;28;20034;-67
2022/12/17 21:23:27;;;;;;;3.38;0.70;;;-4.80;99.90;;;;;;5022959;28;20424;-65
2022/12/17 21:26:00;;;;;;;2.40;0.80;;;-4.80;99.90;;;;;;5021425;28;20038;-69
2022/12/17 21:28:26;;;;;;;2.20;0.77;;;-4.90;99.90;;;;;;5019096;28;20565;-69
2022/12/17 21:30:52;;;;;;;2.05;0.77;;;-4.90;99.90;;;;;;5015589;28;20039;-69
2022/12/17 21:33:18;;;;;;;2.75;0.77;;;-4.90;99.90;;;;;;5018162;28;20045;-68
2022/12/17 21:35:44;;;;;;;2.45;1.00;;;-4.90;99.90;;;;;;5019907;28;20033;-68
2022/12/17 21:38:09;;;;;;;3.42;0.98;;;-4.90;99.90;;;;;;5020432;28;20037;-69
2022/12/17 21:40:35;;;;;;;2.72;1.00;;;-4.90;99.90;;;;;;5020683;28;20129;-68
2022/12/17 21:43:01;;;;;;;3.13;0.80;;;-4.80;99.90;;;;;;5023027;28;20082;-69
2022/12/17 21:45:36;;;;;;;2.03;0.93;;;-4.80;99.90;;;;;;5019728;28;20093;-68
2022/12/17 21:48:03;;;;;;;3.33;1.05;;;-4.80;99.90;;;;;;5024063;28;20045;-68
2022/12/17 21:50:29;;;;;;;0.82;0.50;;;-4.80;99.90;;;;;;5023122;28;20042;-68
2022/12/17 21:52:55;;;;;;;1.88;0.50;;;-4.80;99.90;;;;;;5023287;28;20099;-68
2022/12/17 21:55:22;;;;;;;0.65;0.45;;;-4.80;99.90;;;;;;5023812;28;20510;-68
2022/12/17 21:57:48;;;;;;;1.80;0.60;;;-4.80;99.90;;;;;;5020898;28;20038;-70
2022/12/17 22:00:14;;;;;;;2.67;0.80;;;-4.80;99.90;;;;;;5023165;28;20043;-68
2022/12/17 22:02:40;;;;;;;2.63;0.50;;;-4.80;99.90;;;;;;5010479;28;20395;-67
2022/12/17 22:05:06;;;;;;;1.25;0.73;;;-4.90;99.90;;;;;;5010795;28;20037;-68
2022/12/17 22:07:32;;;;;;;1.48;0.70;;;-5.00;99.90;;;;;;5013981;28;20452;-68
2022/12/17 22:09:58;;;;;;;1.20;0.85;;;-5.00;99.90;;;;;;5014894;28;20059;-67
2022/12/17 22:15:09;;;;;;;1.52;0.70;;;-5.00;99.90;;;;;;5014818;28;20045;-68
2022/12/17 22:17:36;;;;;;;2.10;0.80;;;-5.00;99.90;;;;;;5017164;28;20060;-68
2022/12/17 22:20:03;;;;;;;2.75;0.60;;;-5.10;99.90;;;;;;5019641;28;20033;-68
2022/12/17 22:22:29;;;;;;;1.73;0.70;;;-5.10;99.90;;;;;;5020454;28;20045;-68
2022/12/17 22:24:55;;;;;;;0.43;0.43;;;-5.20;99.90;;;;;;5024714;28;20547;-68
2022/12/17 22:27:21;;;;;;;1.00;0.50;;;-5.10;99.90;;;;;;5021558;28;20037;-67
2022/12/17 22:35:15;;;;;;;3.60;0.68;;;-5.00;99.90;;;;;;5022677;28;20049;-68
2022/12/17 22:37:41;;;;;;;3.20;0.90;;;-4.90;99.90;;;;;;5018835;28;20053;-67
2022/12/17 22:40:07;;;;;;;1.27;0.77;;;-5.00;99.90;;;;;;5018449;28;21519;-68
2022/12/17 22:45:17;;;;;;;1.48;0.73;;;-5.00;99.90;;;;;;4994881;28;20045;-66
2022/12/17 22:47:43;;;;;;;1.95;0.70;;;-5.10;99.90;;;;;;5041611;28;20040;-69
2022/12/17 22:50:09;;;;;;;0.93;0.60;;;-5.10;99.90;;;;;;5042697;28;20041;-67
2022/12/17 22:52:35;;;;;;;3.60;0.90;;;-5.00;99.90;;;;;;5042345;28;20574;-67
2022/12/17 22:55:01;;;;;;;3.55;0.80;;;-5.00;99.90;;;;;;5043740;28;20070;-69
2022/12/17 22:57:26;;;;;;;1.58;0.75;;;-5.10;99.90;;;;;;5041582;28;20405;-69
2022/12/17 22:59:52;;;;;;;3.90;1.27;;;-5.00;99.90;;;;;;5041998;28;20789;-70
2022/12/17 23:07:34;;;;;;;1.85;0.80;;;-4.90;99.90;;;;;;5101403;27;20162;-67
2022/12/17 23:09:59;;;;;;;3.10;0.90;;;-4.90;99.90;;;;;;5087826;28;20044;-67
2022/12/17 23:15:09;;;;;;;4.75;1.30;;;-5.10;99.90;;;;;;5030580;28;20048;-68
2022/12/17 23:17:35;;;;;;;4.90;1.13;;;-5.00;99.90;;;;;;5056887;28;20047;-68
2022/12/17 23:20:01;;;;;;;2.95;0.95;;;-5.00;99.90;;;;;;5060180;28;20426;-68
2022/12/17 23:22:26;;;;;;;2.95;0.90;;;-5.00;99.90;;;;;;5058813;28;20032;-68
2022/12/17 23:24:52;;;;;;;2.00;0.82;;;-5.00;99.90;;;;;;5061605;28;20491;-68
2022/12/17 23:27:18;;;;;;;6.70;0.90;;;-5.00;99.90;;;;;;5058677;28;20040;-69
2022/12/17 23:29:43;;;;;;;4.22;0.85;;;-4.90;99.90;;;;;;5062051;28;20044;-66
2022/12/17 23:32:09;;;;;;;1.70;0.73;;;-4.90;99.90;;;;;;5071797;28;20040;-68
2022/12/17 23:34:35;;;;;;;4.30;0.50;;;-4.70;99.90;;;;;;5082192;28;20128;-67
2022/12/17 23:37:00;;;;;;;2.13;0.82;;;-4.70;99.90;;;;;;5070872;28;20039;-67
2022/12/17 23:39:26;;;;;;;1.92;0.80;;;-4.70;99.90;;;;;;5079922;28;20039;-68
2022/12/17 23:41:54;;;;;;;2.65;0.77;;;-4.60;99.90;;;;;;5075370;28;20111;-68
2022/12/17 23:44:19;;;;;;;3.72;0.90;;;-4.50;99.90;;;;;;5081320;28;20082;-68
2022/12/17 23:46:45;;;;;;;2.75;0.73;;;-4.60;99.90;;;;;;5076816;28;20295;-68
2022/12/17 23:49:11;;;;;;;2.28;0.80;;;-4.60;99.90;;;;;;5078274;28;20036;-69
2022/12/17 23:51:36;;;;;;;1.55;0.55;;;-4.60;99.90;;;;;;5071981;28;20455;-68
2022/12/17 23:54:02;;;;;;;6.82;0.90;;;-4.60;99.90;;;;;;5073056;28;20028;-69
2022/12/17 23:56:28;;;;;;;4.47;1.10;;;-4.50;99.90;;;;;;5070862;28;20055;-68
2022/12/17 23:58:56;;;;;;;1.35;0.60;;;-4.60;99.90;;;;;;5085174;28;20411;-69
